HRHO2: North Canadian River

                                SHEF ID:       HRHO2     North Canadian River near Harrah
STATION TYPE:
Regulating: Stage = 15.00, Flow = 8563

STAGE RIV-FLOW WTR-TEMP DIS-OXY PH CONDUCT BAT-LOAD
ft cfs F mg/l su umho/cm volt
Ccp-Rev Ccp-Rev Ccp-Rev Ccp-Rev Ccp-Rev Ccp-Rev Ccp-Rev
(America/Chicago)
04/29 00:00 3.28 131 68.36 7.17 7.79 825 12.02
04/29 01:00 3.28 131 67.48 6.95 7.75 829 12.06
04/29 02:00 3.29 133 66.72 7.03 7.72 828 12.06
04/29 03:00 3.29 133 65.91 7.01 7.71 829 12.06
04/29 04:00 3.29 133 65.10 7.03 7.69 831 12.04
04/29 05:00 3.30 135 64.20 7.13 7.68 833 12.03
04/29 06:00 3.30 135 63.34 7.23 7.67 836 12.01
04/29 07:00 3.31 136 62.67 7.36 7.68 838 12.00
04/29 08:00 3.31 136 62.37 7.84 7.71 841 12.00
04/29 09:00 3.31 136 62.82 8.09 7.76 842 12.27
04/29 10:00 3.32 138 63.61 8.58 7.80 845 12.82
04/29 11:00 3.32 138 65.19 8.82 7.83 848 12.97
04/29 12:00 3.32 138 67.14 9.00 7.87 851 12.99
04/29 13:00 3.32 138 69.08 9.04 7.89 854 12.97
04/29 14:00 3.32 138 70.88 9.16 7.93 857 13.03
04/29 15:00 3.32 138 71.60 9.03 7.96 856 13.00
04/29 16:00 3.32 138 72.73 9.13 8.00 857 13.03
04/29 17:00 3.31 136 73.02 8.99 8.02 858 13.17
04/29 18:00 3.30 135 72.43 8.85 8.05 859 13.14
04/29 19:00 3.30 135 71.13 8.52 8.05 860 12.89
04/29 20:00 3.29 133 69.96 8.12 8.04 863 12.74
04/29 21:00 3.28 131 68.74 8.00 8.01 864 12.50
04/29 22:00 3.28 131 67.64 7.72 7.95 868 12.30
04/29 23:00 3.28 131 67.17 7.60 7.91 867 12.14
Data processed at Thu 30Apr2026 04:25 GMT

NOTICE: If you are parsing this page

Please convert to using our Data API. Starting early 2026 we will be migrating to: https://water.usace.army.mil with modern pages rendered in JavaScript. When this migration completes you will no longer be able to scrape this page! CWMSDataAPI (CDA)

Timeseries IDs (TSIDs)

TSIDs used from left to right in the data table
HARR.Stage.Inst.1Hour.0.Ccp-Rev
HARR.Flow.Inst.1Hour.0.Ccp-Rev
HARR.Temp-Water.Inst.1Hour.0.Ccp-Rev
HARR.Conc-DO.Inst.1Hour.0.Ccp-Rev
HARR.pH.Inst.1Hour.0.Ccp-Rev
HARR.Cond-Water.Inst.1Hour.0.Ccp-Rev
HARR.Volt-Battery Load.Inst.1Hour.0.Ccp-Rev

                            

All information presented herein is the property of the government of the United States of America and may be revised or deleted at any time without prior notice. Dissemination of this information without the expressed written consent of the Public Affairs Office, Tulsa District U.S. Army Corps of Engineers is strictly prohibited. These data are gathered electronically and, as presented, have NOT undergone any form of quality control. These data are NOT guaranteed to be valid or correct.